sensor_id;sensor_type;location;lat;lon;timestamp;pressure;altitude;pressure_sealevel;temperature;humidity
39223;BME280;24936;46.328;11.026;2023-04-15T00:01:18;93250.31;;;0.45;76.08
39223;BME280;24936;46.328;11.026;2023-04-15T00:03:44;93243.28;;;0.47;75.20
39223;BME280;24936;46.328;11.026;2023-04-15T00:06:09;93247.53;;;0.48;75.51
39223;BME280;24936;46.328;11.026;2023-04-15T00:08:34;93242.72;;;0.18;76.42
39223;BME280;24936;46.328;11.026;2023-04-15T00:11:00;93246.16;;;0.18;76.81
39223;BME280;24936;46.328;11.026;2023-04-15T00:13:27;93241.00;;;0.05;76.81
39223;BME280;24936;46.328;11.026;2023-04-15T00:15:52;93252.44;;;-0.23;78.05
39223;BME280;24936;46.328;11.026;2023-04-15T00:18:18;93255.84;;;-0.36;79.60
39223;BME280;24936;46.328;11.026;2023-04-15T00:20:43;93253.34;;;-0.24;77.67
39223;BME280;24936;46.328;11.026;2023-04-15T00:23:08;93244.34;;;0.32;74.17
39223;BME280;24936;46.328;11.026;2023-04-15T00:25:33;93243.28;;;0.47;73.93
39223;BME280;24936;46.328;11.026;2023-04-15T00:27:59;93242.56;;;0.45;73.96
39223;BME280;24936;46.328;11.026;2023-04-15T00:30:24;93242.06;;;0.64;72.61
39223;BME280;24936;46.328;11.026;2023-04-15T00:32:50;93247.91;;;0.55;73.04
39223;BME280;24936;46.328;11.026;2023-04-15T00:35:16;93244.25;;;0.33;74.08
39223;BME280;24936;46.328;11.026;2023-04-15T00:37:42;93246.09;;;0.07;75.95
39223;BME280;24936;46.328;11.026;2023-04-15T00:40:11;93242.16;;;-0.12;76.97
39223;BME280;24936;46.328;11.026;2023-04-15T00:42:37;93249.44;;;-0.30;77.42
39223;BME280;24936;46.328;11.026;2023-04-15T00:45:03;93247.47;;;-0.26;76.93
39223;BME280;24936;46.328;11.026;2023-04-15T00:47:30;93246.31;;;-0.35;76.97
39223;BME280;24936;46.328;11.026;2023-04-15T00:49:55;93243.28;;;-0.16;76.39
39223;BME280;24936;46.328;11.026;2023-04-15T00:52:22;93234.59;;;0.35;73.15
39223;BME280;24936;46.328;11.026;2023-04-15T00:54:47;93245.06;;;-0.17;76.54
39223;BME280;24936;46.328;11.026;2023-04-15T00:57:12;93246.53;;;-0.25;77.05
39223;BME280;24936;46.328;11.026;2023-04-15T00:59:38;93244.72;;;0.14;74.59
39223;BME280;24936;46.328;11.026;2023-04-15T01:02:04;93241.50;;;0.10;74.75
39223;BME280;24936;46.328;11.026;2023-04-15T01:04:29;93250.66;;;-0.23;75.79
39223;BME280;24936;46.328;11.026;2023-04-15T01:06:56;93250.97;;;-0.40;78.04
39223;BME280;24936;46.328;11.026;2023-04-15T01:09:21;93245.50;;;-0.36;76.75
39223;BME280;24936;46.328;11.026;2023-04-15T01:11:47;93241.34;;;-0.38;76.39
39223;BME280;24936;46.328;11.026;2023-04-15T01:14:12;93244.97;;;-0.41;76.86
39223;BME280;24936;46.328;11.026;2023-04-15T01:16:38;93243.03;;;-0.50;77.41
39223;BME280;24936;46.328;11.026;2023-04-15T01:19:08;93246.94;;;-0.57;77.65
39223;BME280;24936;46.328;11.026;2023-04-15T01:21:38;93237.19;;;-0.15;75.23
39223;BME280;24936;46.328;11.026;2023-04-15T01:24:08;93242.97;;;-0.11;74.78
39223;BME280;24936;46.328;11.026;2023-04-15T01:26:38;93238.06;;;-0.53;76.77
39223;BME280;24936;46.328;11.026;2023-04-15T01:29:04;93234.41;;;-0.77;78.75
39223;BME280;24936;46.328;11.026;2023-04-15T01:31:29;93240.09;;;-0.84;79.08
39223;BME280;24936;46.328;11.026;2023-04-15T01:33:55;93242.13;;;-0.89;79.08
39223;BME280;24936;46.328;11.026;2023-04-15T01:36:20;93242.97;;;-0.76;78.81
39223;BME280;24936;46.328;11.026;2023-04-15T01:38:46;93238.66;;;-0.63;78.54
39223;BME280;24936;46.328;11.026;2023-04-15T01:41:12;93243.00;;;-0.63;77.87
39223;BME280;24936;46.328;11.026;2023-04-15T01:43:38;93236.19;;;-0.77;77.97
39223;BME280;24936;46.328;11.026;2023-04-15T01:46:04;93242.78;;;-0.73;78.13
39223;BME280;24936;46.328;11.026;2023-04-15T01:48:30;93244.34;;;-0.70;77.48
39223;BME280;24936;46.328;11.026;2023-04-15T01:50:57;93244.84;;;-0.78;77.75
39223;BME280;24936;46.328;11.026;2023-04-15T01:53:25;93251.75;;;-0.91;78.07
39223;BME280;24936;46.328;11.026;2023-04-15T01:55:51;93260.28;;;-1.17;79.45
39223;BME280;24936;46.328;11.026;2023-04-15T01:58:17;93258.81;;;-1.21;80.54
39223;BME280;24936;46.328;11.026;2023-04-15T02:00:43;93255.53;;;-1.10;80.20
39223;BME280;24936;46.328;11.026;2023-04-15T02:03:08;93255.47;;;-0.96;78.92
39223;BME280;24936;46.328;11.026;2023-04-15T02:05:34;93257.63;;;-0.89;77.86
39223;BME280;24936;46.328;11.026;2023-04-15T02:08:00;93255.47;;;-0.96;77.96
39223;BME280;24936;46.328;11.026;2023-04-15T02:10:25;93256.06;;;-1.05;79.03
39223;BME280;24936;46.328;11.026;2023-04-15T02:12:51;93252.59;;;-1.18;79.25
39223;BME280;24936;46.328;11.026;2023-04-15T02:15:16;93258.13;;;-1.10;77.69
39223;BME280;24936;46.328;11.026;2023-04-15T02:17:42;93259.16;;;-1.13;78.45
39223;BME280;24936;46.328;11.026;2023-04-15T02:20:10;93256.69;;;-1.42;80.78
39223;BME280;24936;46.328;11.026;2023-04-15T02:22:35;93261.16;;;-1.58;81.28
39223;BME280;24936;46.328;11.026;2023-04-15T02:25:01;93261.06;;;-1.71;82.27
39223;BME280;24936;46.328;11.026;2023-04-15T02:27:26;93267.00;;;-1.83;82.59
39223;BME280;24936;46.328;11.026;2023-04-15T02:29:53;93258.47;;;-1.57;81.28
39223;BME280;24936;46.328;11.026;2023-04-15T02:32:18;93266.19;;;-1.57;81.50
39223;BME280;24936;46.328;11.026;2023-04-15T02:34:44;93257.69;;;-1.72;82.62
39223;BME280;24936;46.328;11.026;2023-04-15T02:37:11;93272.59;;;-1.62;82.20
39223;BME280;24936;46.328;11.026;2023-04-15T02:39:37;93270.25;;;-1.52;81.59
39223;BME280;24936;46.328;11.026;2023-04-15T02:42:03;93266.97;;;-1.69;82.22
39223;BME280;24936;46.328;11.026;2023-04-15T02:44:30;93272.63;;;-1.91;83.79
39223;BME280;24936;46.328;11.026;2023-04-15T02:46:56;93269.78;;;-2.16;84.54
39223;BME280;24936;46.328;11.026;2023-04-15T02:52:44;93269.06;;;-1.89;84.35
39223;BME280;24936;46.328;11.026;2023-04-15T02:55:09;93270.09;;;-1.64;82.60
39223;BME280;24936;46.328;11.026;2023-04-15T02:57:35;93273.84;;;-1.41;81.02
39223;BME280;24936;46.328;11.026;2023-04-15T03:00:03;93277.22;;;-1.67;81.71
39223;BME280;24936;46.328;11.026;2023-04-15T03:02:33;93267.09;;;-1.71;83.00
39223;BME280;24936;46.328;11.026;2023-04-15T03:04:59;93268.06;;;-1.59;82.38
39223;BME280;24936;46.328;11.026;2023-04-15T03:07:24;93262.47;;;-1.38;81.53
39223;BME280;24936;46.328;11.026;2023-04-15T03:09:50;93260.06;;;-1.41;80.41
39223;BME280;24936;46.328;11.026;2023-04-15T03:12:15;93267.56;;;-1.51;81.15
39223;BME280;24936;46.328;11.026;2023-04-15T03:14:41;93266.34;;;-1.45;81.14
39223;BME280;24936;46.328;11.026;2023-04-15T03:17:06;93262.47;;;-1.38;80.46
39223;BME280;24936;46.328;11.026;2023-04-15T03:19:32;93266.66;;;-1.23;79.15
39223;BME280;24936;46.328;11.026;2023-04-15T03:21:57;93280.41;;;-1.49;79.50
39223;BME280;24936;46.328;11.026;2023-04-15T03:24:22;93274.69;;;-1.55;79.93
39223;BME280;24936;46.328;11.026;2023-04-15T03:26:49;93277.28;;;-1.69;81.10
39223;BME280;24936;46.328;11.026;2023-04-15T03:29:14;93277.13;;;-1.80;81.96
39223;BME280;24936;46.328;11.026;2023-04-15T03:31:40;93281.84;;;-1.87;82.37
39223;BME280;24936;46.328;11.026;2023-04-15T03:34:06;93286.16;;;-1.88;82.92
39223;BME280;24936;46.328;11.026;2023-04-15T03:36:31;93284.66;;;-1.63;82.21
39223;BME280;24936;46.328;11.026;2023-04-15T03:38:59;93282.84;;;-1.75;82.25
39223;BME280;24936;46.328;11.026;2023-04-15T03:41:26;93283.97;;;-1.52;81.17
39223;BME280;24936;46.328;11.026;2023-04-15T03:43:52;93286.38;;;-1.49;80.57
39223;BME280;24936;46.328;11.026;2023-04-15T03:46:18;93287.28;;;-1.77;82.17
39223;BME280;24936;46.328;11.026;2023-04-15T03:48:43;93286.09;;;-1.86;82.27
39223;BME280;24936;46.328;11.026;2023-04-15T03:51:08;93282.28;;;-1.39;80.49
39223;BME280;24936;46.328;11.026;2023-04-15T03:53:34;93278.22;;;-1.28;79.11
39223;BME280;24936;46.328;11.026;2023-04-15T03:55:59;93286.50;;;-1.65;80.96
39223;BME280;24936;46.328;11.026;2023-04-15T03:58:25;93283.97;;;-1.79;81.93
39223;BME280;24936;46.328;11.026;2023-04-15T04:00:51;93285.06;;;-1.42;80.24
39223;BME280;24936;46.328;11.026;2023-04-15T04:03:16;93294.38;;;-1.39;79.10
39223;BME280;24936;46.328;11.026;2023-04-15T04:05:42;93289.47;;;-1.86;81.42
39223;BME280;24936;46.328;11.026;2023-04-15T04:08:09;93295.75;;;-1.75;81.73
39223;BME280;24936;46.328;11.026;2023-04-15T04:10:35;93294.28;;;-1.79;81.58
39223;BME280;24936;46.328;11.026;2023-04-15T04:13:00;93296.13;;;-1.96;82.69
39223;BME280;24936;46.328;11.026;2023-04-15T04:15:26;93296.69;;;-1.91;82.74
39223;BME280;24936;46.328;11.026;2023-04-15T04:17:51;93293.59;;;-1.54;80.43
39223;BME280;24936;46.328;11.026;2023-04-15T04:20:17;93294.78;;;-1.60;79.93
39223;BME280;24936;46.328;11.026;2023-04-15T04:22:42;93297.63;;;-2.06;82.57
39223;BME280;24936;46.328;11.026;2023-04-15T04:25:08;93290.81;;;-2.07;82.76
39223;BME280;24936;46.328;11.026;2023-04-15T04:27:34;93292.78;;;-1.69;81.04
39223;BME280;24936;46.328;11.026;2023-04-15T04:30:00;93287.03;;;-2.02;81.98
39223;BME280;24936;46.328;11.026;2023-04-15T04:32:26;93293.38;;;-2.22;83.08
39223;BME280;24936;46.328;11.026;2023-04-15T04:34:51;93286.38;;;-2.05;82.74
39223;BME280;24936;46.328;11.026;2023-04-15T04:37:17;93287.47;;;-1.80;81.20
39223;BME280;24936;46.328;11.026;2023-04-15T04:39:42;93290.34;;;-2.14;82.81
39223;BME280;24936;46.328;11.026;2023-04-15T04:42:08;93291.09;;;-2.12;83.45
39223;BME280;24936;46.328;11.026;2023-04-15T04:44:33;93289.69;;;-2.03;82.68
39223;BME280;24936;46.328;11.026;2023-04-15T04:46:59;93293.09;;;-2.32;84.04
39223;BME280;24936;46.328;11.026;2023-04-15T04:49:24;93296.28;;;-2.42;84.92
39223;BME280;24936;46.328;11.026;2023-04-15T04:51:50;93301.28;;;-2.25;84.54
39223;BME280;24936;46.328;11.026;2023-04-15T04:54:16;93291.81;;;-2.10;83.94
39223;BME280;24936;46.328;11.026;2023-04-15T04:56:42;93292.06;;;-2.00;83.12
39223;BME280;24936;46.328;11.026;2023-04-15T04:59:07;93303.22;;;-1.85;82.35
39223;BME280;24936;46.328;11.026;2023-04-15T05:01:33;93292.47;;;-2.06;83.48
39223;BME280;24936;46.328;11.026;2023-04-15T05:03:59;93297.97;;;-2.12;83.88
39223;BME280;24936;46.328;11.026;2023-04-15T05:06:24;93292.97;;;-1.87;83.01
39223;BME280;24936;46.328;11.026;2023-04-15T05:08:50;93288.47;;;-1.68;82.19
39223;BME280;24936;46.328;11.026;2023-04-15T05:11:16;93292.06;;;-1.86;82.53
39223;BME280;24936;46.328;11.026;2023-04-15T05:13:41;93285.16;;;-1.85;83.49
39223;BME280;24936;46.328;11.026;2023-04-15T05:16:07;93289.19;;;-1.81;83.44
39223;BME280;24936;46.328;11.026;2023-04-15T05:18:32;93284.56;;;-1.61;82.37
39223;BME280;24936;46.328;11.026;2023-04-15T05:20:58;93295.81;;;-1.62;82.46
39223;BME280;24936;46.328;11.026;2023-04-15T05:23:23;93289.25;;;-1.54;81.97
39223;BME280;24936;46.328;11.026;2023-04-15T05:25:49;93299.38;;;-1.50;81.95
39223;BME280;24936;46.328;11.026;2023-04-15T05:28:14;93298.44;;;-1.35;81.54
39223;BME280;24936;46.328;11.026;2023-04-15T05:30:40;93295.38;;;-1.14;80.61
39223;BME280;24936;46.328;11.026;2023-04-15T05:33:06;93286.84;;;-1.02;79.54
39223;BME280;24936;46.328;11.026;2023-04-15T05:35:31;93287.53;;;-0.85;78.12
39223;BME280;24936;46.328;11.026;2023-04-15T05:37:57;93290.13;;;-0.72;77.57
39223;BME280;24936;46.328;11.026;2023-04-15T05:40:22;93296.84;;;-0.70;78.29
39223;BME280;24936;46.328;11.026;2023-04-15T05:42:48;93297.78;;;-0.71;77.80
39223;BME280;24936;46.328;11.026;2023-04-15T05:45:13;93293.13;;;-0.79;78.41
39223;BME280;24936;46.328;11.026;2023-04-15T05:47:39;93299.44;;;-0.70;78.47
39223;BME280;24936;46.328;11.026;2023-04-15T05:50:05;93300.78;;;-0.64;78.60
39223;BME280;24936;46.328;11.026;2023-04-15T05:52:31;93294.81;;;-0.65;78.72
39223;BME280;24936;46.328;11.026;2023-04-15T05:54:56;93301.94;;;-0.55;77.99
39223;BME280;24936;46.328;11.026;2023-04-15T05:57:22;93295.97;;;-0.43;77.43
39223;BME280;24936;46.328;11.026;2023-04-15T05:59:47;93301.53;;;-0.36;77.20
39223;BME280;24936;46.328;11.026;2023-04-15T06:02:13;93301.16;;;-0.30;76.81
39223;BME280;24936;46.328;11.026;2023-04-15T06:04:38;93303.72;;;-0.30;76.39
39223;BME280;24936;46.328;11.026;2023-04-15T06:07:04;93301.00;;;-0.41;76.68
39223;BME280;24936;46.328;11.026;2023-04-15T06:09:30;93308.28;;;-0.47;76.97
39223;BME280;24936;46.328;11.026;2023-04-15T06:11:55;93304.41;;;-0.67;79.17
39223;BME280;24936;46.328;11.026;2023-04-15T06:14:22;93309.16;;;-0.73;80.67
39223;BME280;24936;46.328;11.026;2023-04-15T06:16:47;93309.78;;;-0.70;79.59
39223;BME280;24936;46.328;11.026;2023-04-15T06:19:13;93312.06;;;-0.65;80.14
39223;BME280;24936;46.328;11.026;2023-04-15T06:21:39;93314.75;;;-0.54;80.42
39223;BME280;24936;46.328;11.026;2023-04-15T06:24:04;93305.84;;;-0.63;79.91
39223;BME280;24936;46.328;11.026;2023-04-15T06:26:30;93308.78;;;-0.41;78.77
39223;BME280;24936;46.328;11.026;2023-04-15T06:28:55;93313.75;;;-0.25;77.32
39223;BME280;24936;46.328;11.026;2023-04-15T06:31:21;93313.44;;;-0.21;76.43
39223;BME280;24936;46.328;11.026;2023-04-15T06:33:47;93318.75;;;-0.22;76.91
39223;BME280;24936;46.328;11.026;2023-04-15T06:36:12;93319.56;;;-0.09;75.53
39223;BME280;24936;46.328;11.026;2023-04-15T06:38:38;93317.69;;;0.06;75.64
39223;BME280;24936;46.328;11.026;2023-04-15T06:41:03;93319.13;;;0.23;74.70
39223;BME280;24936;46.328;11.026;2023-04-15T06:43:29;93316.25;;;0.52;73.08
39223;BME280;24936;46.328;11.026;2023-04-15T06:45:55;93324.69;;;0.80;72.46
39223;BME280;24936;46.328;11.026;2023-04-15T06:48:21;93318.75;;;0.91;73.04
39223;BME280;24936;46.328;11.026;2023-04-15T06:50:48;93310.75;;;0.94;71.95
39223;BME280;24936;46.328;11.026;2023-04-15T06:53:13;93311.13;;;1.01;71.79
39223;BME280;24936;46.328;11.026;2023-04-15T06:55:39;93319.09;;;1.11;71.35
39223;BME280;24936;46.328;11.026;2023-04-15T06:58:05;93319.22;;;1.20;71.27
39223;BME280;24936;46.328;11.026;2023-04-15T07:00:31;93312.63;;;1.16;72.07
39223;BME280;24936;46.328;11.026;2023-04-15T07:02:57;93315.31;;;1.15;71.23
39223;BME280;24936;46.328;11.026;2023-04-15T07:05:23;93313.34;;;1.18;71.33
39223;BME280;24936;46.328;11.026;2023-04-15T07:07:49;93318.31;;;1.33;69.43
39223;BME280;24936;46.328;11.026;2023-04-15T07:10:15;93302.94;;;1.43;67.51
39223;BME280;24936;46.328;11.026;2023-04-15T07:12:41;93309.69;;;1.45;67.08
39223;BME280;24936;46.328;11.026;2023-04-15T07:15:06;93312.38;;;1.55;68.26
39223;BME280;24936;46.328;11.026;2023-04-15T07:17:32;93307.72;;;1.72;68.23
39223;BME280;24936;46.328;11.026;2023-04-15T07:19:57;93304.84;;;1.99;67.57
39223;BME280;24936;46.328;11.026;2023-04-15T07:22:22;93303.91;;;2.11;67.17
39223;BME280;24936;46.328;11.026;2023-04-15T07:24:48;93293.72;;;2.31;65.63
39223;BME280;24936;46.328;11.026;2023-04-15T07:27:13;93300.81;;;2.52;65.88
39223;BME280;24936;46.328;11.026;2023-04-15T07:29:39;93299.63;;;2.67;65.48
39223;BME280;24936;46.328;11.026;2023-04-15T07:32:04;93294.38;;;2.90;63.80
39223;BME280;24936;46.328;11.026;2023-04-15T07:34:30;93292.91;;;3.09;62.85
39223;BME280;24936;46.328;11.026;2023-04-15T07:36:55;93289.50;;;3.29;61.55
39223;BME280;24936;46.328;11.026;2023-04-15T07:39:21;93282.94;;;3.46;59.49
39223;BME280;24936;46.328;11.026;2023-04-15T07:41:47;93279.44;;;3.78;60.14
39223;BME280;24936;46.328;11.026;2023-04-15T07:44:13;93277.44;;;4.13;60.95
39223;BME280;24936;46.328;11.026;2023-04-15T07:46:38;93278.66;;;4.40;59.86
39223;BME280;24936;46.328;11.026;2023-04-15T07:49:04;93281.19;;;4.51;56.76
39223;BME280;24936;46.328;11.026;2023-04-15T07:51:30;93280.97;;;4.74;56.32
39223;BME280;24936;46.328;11.026;2023-04-15T07:53:56;93267.88;;;5.05;55.15
39223;BME280;24936;46.328;11.026;2023-04-15T07:56:21;93265.94;;;5.07;54.70
39223;BME280;24936;46.328;11.026;2023-04-15T07:58:47;93267.59;;;5.47;55.75
39223;BME280;24936;46.328;11.026;2023-04-15T08:01:12;93269.75;;;5.81;54.27
39223;BME280;24936;46.328;11.026;2023-04-15T08:03:38;93261.75;;;5.93;52.73
39223;BME280;24936;46.328;11.026;2023-04-15T08:06:03;93260.84;;;6.32;52.36
39223;BME280;24936;46.328;11.026;2023-04-15T08:08:28;93261.56;;;6.24;51.34
39223;BME280;24936;46.328;11.026;2023-04-15T08:10:54;93260.63;;;6.53;49.53
39223;BME280;24936;46.328;11.026;2023-04-15T08:13:19;93261.88;;;6.49;51.77
39223;BME280;24936;46.328;11.026;2023-04-15T08:15:45;93260.63;;;6.81;49.08
39223;BME280;24936;46.328;11.026;2023-04-15T08:18:10;93255.69;;;7.42;47.70
39223;BME280;24936;46.328;11.026;2023-04-15T08:20:36;93250.84;;;7.91;48.65
39223;BME280;24936;46.328;11.026;2023-04-15T08:23:02;93239.94;;;8.31;46.47
39223;BME280;24936;46.328;11.026;2023-04-15T08:25:27;93245.25;;;8.39;44.23
39223;BME280;24936;46.328;11.026;2023-04-15T08:27:56;93241.00;;;8.72;45.61
39223;BME280;24936;46.328;11.026;2023-04-15T08:30:21;93241.78;;;8.73;47.71
39223;BME280;24936;46.328;11.026;2023-04-15T08:32:48;93242.47;;;9.76;40.50
39223;BME280;24936;46.328;11.026;2023-04-15T08:35:14;93240.47;;;10.84;38.82
39223;BME280;24936;46.328;11.026;2023-04-15T08:37:39;93235.69;;;10.31;34.88
39223;BME280;24936;46.328;11.026;2023-04-15T08:40:05;93232.56;;;10.28;36.64
39223;BME280;24936;46.328;11.026;2023-04-15T08:42:37;93233.13;;;9.73;37.68
39223;BME280;24936;46.328;11.026;2023-04-15T08:45:04;93231.44;;;9.31;39.98
39223;BME280;24936;46.328;11.026;2023-04-15T08:47:30;93229.28;;;9.01;39.78
39223;BME280;24936;46.328;11.026;2023-04-15T08:49:58;93227.44;;;9.02;40.15
39223;BME280;24936;46.328;11.026;2023-04-15T08:52:25;93227.16;;;10.77;38.07
39223;BME280;24936;46.328;11.026;2023-04-15T08:54:56;93219.41;;;11.47;37.86
39223;BME280;24936;46.328;11.026;2023-04-15T08:57:25;93213.59;;;12.13;36.75
39223;BME280;24936;46.328;11.026;2023-04-15T08:59:52;93207.78;;;12.03;35.72
39223;BME280;24936;46.328;11.026;2023-04-15T09:02:20;93205.19;;;11.71;36.10
39223;BME280;24936;46.328;11.026;2023-04-15T09:04:46;93203.34;;;12.63;37.40
39223;BME280;24936;46.328;11.026;2023-04-15T09:07:11;93199.38;;;13.41;36.05
39223;BME280;24936;46.328;11.026;2023-04-15T09:09:37;93207.97;;;13.65;35.73
39223;BME280;24936;46.328;11.026;2023-04-15T09:12:04;93202.00;;;14.34;32.87
39223;BME280;24936;46.328;11.026;2023-04-15T09:14:29;93207.34;;;13.26;36.99
39223;BME280;24936;46.328;11.026;2023-04-15T09:17:03;93203.25;;;13.23;34.24
39223;BME280;24936;46.328;11.026;2023-04-15T09:19:29;93190.84;;;13.60;32.90
39223;BME280;24936;46.328;11.026;2023-04-15T09:21:56;93185.91;;;14.64;32.40
39223;BME280;24936;46.328;11.026;2023-04-15T09:24:23;93197.25;;;14.58;30.95
39223;BME280;24936;46.328;11.026;2023-04-15T09:26:54;93188.88;;;14.83;29.00
39223;BME280;24936;46.328;11.026;2023-04-15T09:29:25;93184.50;;;15.10;31.44
39223;BME280;24936;46.328;11.026;2023-04-15T09:31:51;93184.19;;;14.85;32.72
39223;BME280;24936;46.328;11.026;2023-04-15T09:34:17;93180.44;;;14.37;31.08
39223;BME280;24936;46.328;11.026;2023-04-15T09:39:10;93181.25;;;15.15;27.14
39223;BME280;24936;46.328;11.026;2023-04-15T09:41:35;93172.34;;;17.23;26.33
39223;BME280;24936;46.328;11.026;2023-04-15T09:44:01;93165.72;;;17.00;27.90
39223;BME280;24936;46.328;11.026;2023-04-15T09:46:44;93172.22;;;17.11;27.02
39223;BME280;24936;46.328;11.026;2023-04-15T09:49:11;93169.16;;;17.46;26.90
39223;BME280;24936;46.328;11.026;2023-04-15T09:51:37;93161.31;;;17.26;25.36
39223;BME280;24936;46.328;11.026;2023-04-15T09:54:03;93164.94;;;17.32;25.65
39223;BME280;24936;46.328;11.026;2023-04-15T09:56:36;93157.19;;;17.69;26.35
39223;BME280;24936;46.328;11.026;2023-04-15T09:59:04;93161.50;;;17.63;25.75
39223;BME280;24936;46.328;11.026;2023-04-15T10:01:30;93157.34;;;17.03;27.02
39223;BME280;24936;46.328;11.026;2023-04-15T10:03:56;93162.22;;;17.77;24.04
39223;BME280;24936;46.328;11.026;2023-04-15T10:06:22;93153.91;;;17.92;26.11
39223;BME280;24936;46.328;11.026;2023-04-15T10:08:50;93155.56;;;17.93;28.72
39223;BME280;24936;46.328;11.026;2023-04-15T10:11:16;93154.09;;;16.94;25.59
39223;BME280;24936;46.328;11.026;2023-04-15T10:13:43;93154.88;;;15.96;27.50
39223;BME280;24936;46.328;11.026;2023-04-15T10:16:11;93151.59;;;16.34;28.28
39223;BME280;24936;46.328;11.026;2023-04-15T10:18:41;93157.53;;;16.29;28.31
39223;BME280;24936;46.328;11.026;2023-04-15T10:21:07;93156.69;;;15.82;25.17
39223;BME280;24936;46.328;11.026;2023-04-15T10:23:33;93149.34;;;16.17;22.22
39223;BME280;24936;46.328;11.026;2023-04-15T10:25:59;93150.56;;;16.42;22.62
39223;BME280;24936;46.328;11.026;2023-04-15T10:28:24;93151.00;;;15.85;24.73
39223;BME280;24936;46.328;11.026;2023-04-15T10:30:51;93150.53;;;15.48;24.50
39223;BME280;24936;46.328;11.026;2023-04-15T10:33:19;93145.19;;;16.62;27.13
39223;BME280;24936;46.328;11.026;2023-04-15T10:35:46;93141.47;;;16.76;25.11
39223;BME280;24936;46.328;11.026;2023-04-15T10:43:49;93144.47;;;16.14;23.58
39223;BME280;24936;46.328;11.026;2023-04-15T10:46:21;93142.66;;;16.80;20.47
39223;BME280;24936;46.328;11.026;2023-04-15T10:48:53;93141.22;;;17.37;22.93
39223;BME280;24936;46.328;11.026;2023-04-15T10:51:27;93140.34;;;18.07;21.60
39223;BME280;24936;46.328;11.026;2023-04-15T10:53:56;93134.94;;;18.14;22.78
39223;BME280;24936;46.328;11.026;2023-04-15T10:56:22;93134.03;;;17.69;23.42
39223;BME280;24936;46.328;11.026;2023-04-15T10:58:47;93139.00;;;17.27;23.55
39223;BME280;24936;46.328;11.026;2023-04-15T11:01:12;93134.34;;;17.22;23.36
39223;BME280;24936;46.328;11.026;2023-04-15T11:03:38;93131.41;;;16.19;22.79
39223;BME280;24936;46.328;11.026;2023-04-15T11:06:05;93135.06;;;16.25;25.21
39223;BME280;24936;46.328;11.026;2023-04-15T11:09:06;93132.94;;;15.26;26.77
39223;BME280;24936;46.328;11.026;2023-04-15T11:14:33;93119.78;;;16.07;27.20
39223;BME280;24936;46.328;11.026;2023-04-15T11:17:00;93130.59;;;15.85;23.11
39223;BME280;24936;46.328;11.026;2023-04-15T11:19:25;93127.28;;;16.24;24.09
39223;BME280;24936;46.328;11.026;2023-04-15T11:21:51;93122.16;;;17.08;22.70
39223;BME280;24936;46.328;11.026;2023-04-15T11:24:25;93123.84;;;16.95;22.63
39223;BME280;24936;46.328;11.026;2023-04-15T11:26:56;93122.56;;;17.43;27.16
39223;BME280;24936;46.328;11.026;2023-04-15T11:29:28;93118.50;;;17.34;24.58
39223;BME280;24936;46.328;11.026;2023-04-15T11:32:03;93116.38;;;17.18;21.46
39223;BME280;24936;46.328;11.026;2023-04-15T11:34:31;93113.41;;;17.33;21.08
39223;BME280;24936;46.328;11.026;2023-04-15T11:36:57;93116.44;;;17.36;23.12
39223;BME280;24936;46.328;11.026;2023-04-15T11:39:22;93108.47;;;17.36;20.72
39223;BME280;24936;46.328;11.026;2023-04-15T11:41:48;93110.75;;;17.65;20.19
39223;BME280;24936;46.328;11.026;2023-04-15T11:44:17;93116.69;;;17.67;21.84
39223;BME280;24936;46.328;11.026;2023-04-15T11:46:42;93112.16;;;18.18;20.42
39223;BME280;24936;46.328;11.026;2023-04-15T11:49:08;93114.63;;;17.37;20.48
39223;BME280;24936;46.328;11.026;2023-04-15T11:51:34;93113.53;;;18.02;19.62
39223;BME280;24936;46.328;11.026;2023-04-15T11:53:59;93117.16;;;17.57;20.51
39223;BME280;24936;46.328;11.026;2023-04-15T11:56:25;93120.66;;;18.08;19.93
39223;BME280;24936;46.328;11.026;2023-04-15T11:58:53;93115.19;;;18.03;20.30
39223;BME280;24936;46.328;11.026;2023-04-15T12:01:30;93110.47;;;17.73;25.13
39223;BME280;24936;46.328;11.026;2023-04-15T12:03:55;93109.59;;;17.54;21.61
39223;BME280;24936;46.328;11.026;2023-04-15T12:06:24;93109.81;;;17.78;20.33
39223;BME280;24936;46.328;11.026;2023-04-15T12:13:48;93112.56;;;16.41;19.61
39223;BME280;24936;46.328;11.026;2023-04-15T12:16:18;93113.00;;;17.36;19.69
39223;BME280;24936;46.328;11.026;2023-04-15T12:18:46;93107.59;;;17.10;20.33
39223;BME280;24936;46.328;11.026;2023-04-15T12:21:12;93109.66;;;16.63;23.04
39223;BME280;24936;46.328;11.026;2023-04-15T12:23:48;93114.47;;;15.80;22.35
39223;BME280;24936;46.328;11.026;2023-04-15T12:26:15;93118.16;;;15.99;23.45
39223;BME280;24936;46.328;11.026;2023-04-15T12:28:41;93116.13;;;15.95;22.53
39223;BME280;24936;46.328;11.026;2023-04-15T12:31:07;93116.88;;;16.29;22.39
39223;BME280;24936;46.328;11.026;2023-04-15T12:33:33;93116.44;;;16.39;22.88
39223;BME280;24936;46.328;11.026;2023-04-15T12:35:59;93117.47;;;16.38;24.55
39223;BME280;24936;46.328;11.026;2023-04-15T12:38:24;93113.75;;;16.52;26.36
39223;BME280;24936;46.328;11.026;2023-04-15T12:40:50;93114.22;;;16.29;22.33
39223;BME280;24936;46.328;11.026;2023-04-15T12:43:15;93113.34;;;16.55;21.61
39223;BME280;24936;46.328;11.026;2023-04-15T12:45:41;93120.19;;;16.83;21.14
39223;BME280;24936;46.328;11.026;2023-04-15T12:48:06;93120.44;;;17.20;21.44
39223;BME280;24936;46.328;11.026;2023-04-15T12:50:34;93116.59;;;17.09;22.14
39223;BME280;24936;46.328;11.026;2023-04-15T12:52:59;93119.41;;;16.69;22.79
39223;BME280;24936;46.328;11.026;2023-04-15T12:55:25;93119.03;;;16.65;21.10
39223;BME280;24936;46.328;11.026;2023-04-15T12:57:50;93119.47;;;16.56;24.52
39223;BME280;24936;46.328;11.026;2023-04-15T13:00:16;93122.00;;;16.96;20.59
39223;BME280;24936;46.328;11.026;2023-04-15T13:02:42;93129.38;;;16.15;22.07
39223;BME280;24936;46.328;11.026;2023-04-15T13:05:08;93125.06;;;15.80;24.04
39223;BME280;24936;46.328;11.026;2023-04-15T13:07:33;93126.91;;;16.07;22.17